Time;durP1;ratioP1;P1;durP2;ratioP2;P2;SDS_P1;SDS_P2;PMS_P1;PMS_P2;Temp;Humidity;BMP_temperature;BMP_pressure;BME280_temperature;BME280_humidity;BME280_pressure;Samples;Min_cycle;Max_cycle;Signal;HPM_P1;HPM_P2
2022/01/14 00:01:38;;;;;;;42.50;18.02;;;5.90;99.90;;;;;;5007680;28;20045;-92
2022/01/14 00:04:04;;;;;;;41.65;17.85;;;5.90;99.90;;;;;;5012139;28;20064;-93
2022/01/14 00:06:55;;;;;;;38.90;19.23;;;5.90;99.90;;;;;;5016221;28;20038;-93
2022/01/14 00:09:21;;;;;;;34.42;18.02;;;5.90;99.90;;;;;;5010817;28;20060;-92
2022/01/14 00:11:57;;;;;;;36.38;18.35;;;5.70;99.90;;;;;;5021829;28;20508;-92
2022/01/14 00:16:54;;;;;;;33.40;17.40;;;5.60;99.90;;;;;;5038631;28;20040;-92
2022/01/14 00:19:20;;;;;;;46.63;20.67;;;6.30;99.90;;;;;;5021648;28;20026;-92
2022/01/14 00:21:46;;;;;;;39.25;19.02;;;5.70;99.90;;;;;;5020365;28;20034;-92
2022/01/14 00:32:11;;;;;;;37.83;19.50;;;5.80;99.90;;;;;;5030350;28;20052;-92
2022/01/14 00:34:37;;;;;;;48.65;20.63;;;5.80;99.90;;;;;;5013641;28;20032;-93
2022/01/14 00:37:29;;;;;;;40.15;19.55;;;5.80;99.90;;;;;;5015028;28;20049;-92
2022/01/14 00:39:54;;;;;;;45.33;18.90;;;5.00;99.90;;;;;;5006017;28;20045;-92
2022/01/14 00:42:20;;;;;;;34.13;17.52;;;6.60;99.90;;;;;;5015067;28;20038;-93
2022/01/14 00:44:47;;;;;;;34.30;19.27;;;6.60;99.90;;;;;;5014336;28;20050;-93
2022/01/14 00:47:12;;;;;;;39.25;19.92;;;5.70;99.90;;;;;;5030043;28;20049;-93
2022/01/14 00:49:38;;;;;;;33.45;18.48;;;6.10;99.90;;;;;;5011221;28;20050;-93
2022/01/14 00:52:04;;;;;;;45.72;19.50;;;6.70;99.90;;;;;;5014947;28;20042;-93
2022/01/14 00:54:36;;;;;;;39.78;17.55;;;5.90;99.90;;;;;;5014301;28;20424;-92
2022/01/14 00:59:28;;;;;;;41.58;19.25;;;5.80;99.90;;;;;;5027790;28;20037;-93
2022/01/14 01:01:58;;;;;;;44.05;18.05;;;5.80;99.90;;;;;;5010889;28;20054;-92
2022/01/14 01:04:32;;;;;;;35.25;18.15;;;5.70;99.90;;;;;;5009710;28;20162;-93
2022/01/14 01:07:00;;;;;;;45.17;18.77;;;5.80;99.90;;;;;;5006635;28;20057;-93
2022/01/14 01:09:26;;;;;;;41.60;19.50;;;5.70;99.90;;;;;;5008043;28;20050;-93
2022/01/14 01:12:15;;;;;;;40.33;16.75;;;6.90;99.90;;;;;;5025067;28;20050;-92
2022/01/14 01:14:56;;;;;;;42.63;19.88;;;5.80;99.90;;;;;;5010115;28;20038;-93
2022/01/14 01:17:22;;;;;;;35.60;17.50;;;5.70;99.90;;;;;;5017334;28;20068;-92
2022/01/14 01:19:48;;;;;;;41.28;18.50;;;5.80;99.90;;;;;;5015260;28;20045;-92
2022/01/14 01:22:22;;;;;;;37.67;19.42;;;5.70;99.90;;;;;;5012367;28;20029;-93
2022/01/14 01:24:48;;;;;;;41.92;18.58;;;5.90;99.90;;;;;;5013095;28;20052;-92
2022/01/14 01:27:16;;;;;;;37.70;18.77;;;6.40;99.90;;;;;;5013692;28;20136;-93
2022/01/14 01:32:09;;;;;;;41.22;18.98;;;5.60;99.90;;;;;;5026516;28;20065;-93
2022/01/14 01:34:35;;;;;;;40.50;19.58;;;5.50;99.90;;;;;;5010387;28;20080;-92
2022/01/14 01:37:04;;;;;;;43.15;19.33;;;5.30;99.90;;;;;;5008990;28;20045;-92
2022/01/14 01:39:35;;;;;;;46.72;19.42;;;5.40;99.90;;;;;;5009634;28;20092;-93
2022/01/14 01:42:08;;;;;;;44.38;18.55;;;5.80;99.90;;;;;;5009981;28;20072;-92
2022/01/14 01:47:27;;;;;;;41.63;19.73;;;6.30;99.90;;;;;;5026875;28;20684;-93
2022/01/14 01:49:53;;;;;;;42.50;19.27;;;5.40;99.90;;;;;;5030924;28;20073;-92
2022/01/14 01:52:19;;;;;;;40.72;20.55;;;6.10;99.90;;;;;;5016141;28;20045;-92
2022/01/14 01:54:45;;;;;;;52.45;20.73;;;5.00;99.90;;;;;;5033067;28;20046;-93
2022/01/14 01:57:11;;;;;;;48.17;22.23;;;5.90;99.90;;;;;;5015561;28;20034;-92
2022/01/14 01:59:37;;;;;;;61.13;22.73;;;5.80;99.90;;;;;;5014666;28;20052;-92
2022/01/14 02:02:03;;;;;;;39.45;20.08;;;6.30;99.90;;;;;;5014727;28;20048;-92
2022/01/14 02:04:29;;;;;;;35.70;19.35;;;5.40;99.90;;;;;;5015362;28;20048;-92
2022/01/14 02:06:56;;;;;;;47.40;20.35;;;6.20;99.90;;;;;;5018139;28;20030;-92
2022/01/14 02:09:23;;;;;;;48.72;20.50;;;6.60;99.90;;;;;;5017612;28;20423;-92
2022/01/14 02:11:49;;;;;;;51.95;21.17;;;6.60;99.90;;;;;;5015797;28;20038;-92
2022/01/14 02:14:40;;;;;;;48.90;22.10;;;6.60;99.90;;;;;;5012123;28;20060;-92
2022/01/14 02:22:56;;;;;;;38.17;18.95;;;5.30;99.90;;;;;;5030653;28;20049;-92
2022/01/14 02:25:36;;;;;;;46.78;19.05;;;5.30;99.90;;;;;;5014280;28;20030;-93
2022/01/14 02:28:08;;;;;;;40.92;18.58;;;5.60;99.90;;;;;;5016626;28;20025;-92
2022/01/14 02:30:39;;;;;;;41.92;21.33;;;5.60;99.90;;;;;;5017328;28;20125;-92
2022/01/14 02:33:05;;;;;;;53.10;23.05;;;5.30;99.90;;;;;;5015971;28;20046;-92
2022/01/14 02:35:31;;;;;;;44.63;20.80;;;6.70;99.90;;;;;;5015508;28;20026;-92
2022/01/14 02:37:58;;;;;;;44.22;19.38;;;5.70;99.90;;;;;;5016745;28;20109;-92
2022/01/14 02:40:24;;;;;;;46.63;19.98;;;6.10;99.90;;;;;;5015643;28;20062;-92
2022/01/14 02:42:50;;;;;;;49.80;21.38;;;6.90;99.90;;;;;;5016733;28;20034;-94
2022/01/14 02:45:17;;;;;;;41.17;19.75;;;5.70;99.90;;;;;;5029374;28;20093;-92
2022/01/14 02:47:44;;;;;;;39.28;19.73;;;6.70;99.90;;;;;;5012606;28;20037;-92
2022/01/14 02:50:16;;;;;;;37.63;18.88;;;6.00;99.90;;;;;;5031292;28;20041;-92
2022/01/14 02:52:54;;;;;;;39.67;19.33;;;6.60;99.90;;;;;;5031574;28;20042;-92
2022/01/14 02:55:22;;;;;;;42.95;19.98;;;6.30;99.90;;;;;;5015602;28;20078;-92
2022/01/14 02:57:53;;;;;;;49.35;20.23;;;6.60;99.90;;;;;;5014020;28;20041;-93
2022/01/14 03:00:30;;;;;;;40.90;19.20;;;5.00;99.90;;;;;;5014785;28;20029;-93
2022/01/14 03:02:59;;;;;;;49.70;22.67;;;5.10;99.90;;;;;;5014474;28;20041;-92
2022/01/14 03:05:28;;;;;;;45.08;21.25;;;5.30;99.90;;;;;;5015533;28;20054;-92
2022/01/14 03:07:54;;;;;;;44.78;22.23;;;6.80;99.90;;;;;;5014653;28;20037;-92
2022/01/14 03:10:21;;;;;;;49.83;21.45;;;6.30;99.90;;;;;;5015190;28;20093;-92
2022/01/14 03:12:47;;;;;;;44.50;20.38;;;7.40;99.90;;;;;;5014675;28;20041;-93
2022/01/14 03:15:15;;;;;;;42.03;20.25;;;6.90;99.90;;;;;;5013924;28;20046;-92
2022/01/14 03:17:42;;;;;;;40.88;22.42;;;5.80;99.90;;;;;;5026468;28;20046;-93
2022/01/14 03:20:11;;;;;;;50.95;21.10;;;5.70;99.90;;;;;;5002790;28;20045;-92
2022/01/14 03:22:37;;;;;;;39.15;22.08;;;5.70;99.90;;;;;;5002872;28;20056;-92
2022/01/14 03:31:11;;;;;;;45.60;20.02;;;5.90;99.90;;;;;;5018458;28;20050;-91
2022/01/14 03:33:36;;;;;;;49.60;20.13;;;5.80;99.90;;;;;;5002322;28;20050;-92
2022/01/14 03:36:04;;;;;;;43.17;22.00;;;6.20;99.90;;;;;;5003268;28;20045;-92
2022/01/14 03:38:30;;;;;;;41.25;19.48;;;5.90;99.90;;;;;;5022426;28;20432;-92
2022/01/14 03:40:57;;;;;;;44.47;20.70;;;5.90;99.90;;;;;;5021834;28;20050;-92
2022/01/14 03:43:22;;;;;;;44.45;20.77;;;6.80;99.90;;;;;;5005822;28;20148;-92
2022/01/14 03:45:51;;;;;;;54.40;21.48;;;5.70;99.90;;;;;;5024289;28;20080;-93
2022/01/14 03:48:27;;;;;;;53.67;22.98;;;5.50;99.90;;;;;;5007347;28;20046;-93
2022/01/14 03:50:53;;;;;;;45.47;19.83;;;5.80;99.90;;;;;;5013420;28;20058;-92
2022/01/14 03:53:18;;;;;;;50.22;23.08;;;5.80;99.90;;;;;;5014824;28;20053;-92
2022/01/14 03:55:45;;;;;;;51.97;23.25;;;5.90;99.90;;;;;;5018069;28;20045;-93
2022/01/14 03:58:11;;;;;;;57.05;24.13;;;5.60;99.90;;;;;;5033304;28;20153;-94
2022/01/14 04:00:37;;;;;;;53.45;22.88;;;5.80;99.90;;;;;;5016512;28;20050;-92
2022/01/14 04:03:09;;;;;;;53.00;22.85;;;6.40;99.90;;;;;;5011579;28;20665;-92
2022/01/14 04:05:35;;;;;;;55.50;24.63;;;5.40;99.90;;;;;;5013523;28;20097;-92
2022/01/14 04:08:01;;;;;;;54.15;22.65;;;5.40;99.90;;;;;;5029421;28;20054;-93
2022/01/14 04:10:27;;;;;;;64.65;26.13;;;7.00;99.90;;;;;;5014562;28;20044;-92
2022/01/14 04:18:23;;;;;;;54.58;24.45;;;5.50;99.90;;;;;;4952987;29;20062;-92
2022/01/14 04:20:50;;;;;;;58.28;24.67;;;5.40;99.90;;;;;;4956416;29;20075;-92
2022/01/14 04:23:18;;;;;;;58.08;24.15;;;7.00;99.90;;;;;;4954591;29;20192;-93
2022/01/14 04:25:56;;;;;;;55.00;24.13;;;6.20;99.90;;;;;;4959872;28;20062;-92
2022/01/14 04:28:24;;;;;;;68.03;25.13;;;5.60;99.90;;;;;;5011120;28;20053;-92
2022/01/14 04:30:56;;;;;;;62.72;24.88;;;5.80;99.90;;;;;;5014512;28;20054;-91
2022/01/14 04:33:23;;;;;;;65.80;24.63;;;6.40;99.90;;;;;;5016380;28;20022;-92
2022/01/14 04:35:50;;;;;;;52.63;23.55;;;5.80;99.90;;;;;;5008703;28;20473;-92
2022/01/14 04:38:16;;;;;;;56.17;23.85;;;5.60;99.90;;;;;;5011932;28;20104;-92
2022/01/14 04:40:42;;;;;;;64.82;23.85;;;5.80;99.90;;;;;;5006879;28;20050;-89
2022/01/14 04:43:08;;;;;;;60.92;25.08;;;5.70;99.90;;;;;;5025632;28;20068;-93
2022/01/14 04:48:10;;;;;;;64.70;25.48;;;5.40;99.90;;;;;;5027523;28;20056;-93
2022/01/14 04:50:54;;;;;;;54.92;24.23;;;5.90;99.90;;;;;;5028339;28;20049;-93
2022/01/14 04:53:21;;;;;;;61.72;27.08;;;5.30;99.90;;;;;;5012711;28;20050;-93
2022/01/14 04:55:48;;;;;;;60.03;27.10;;;6.80;99.90;;;;;;5013423;28;20066;-93
2022/01/14 04:58:14;;;;;;;52.92;26.05;;;6.70;99.90;;;;;;5016915;28;20104;-92
2022/01/14 05:00:40;;;;;;;65.55;26.63;;;5.50;99.90;;;;;;5017970;28;20038;-92
2022/01/14 05:03:07;;;;;;;60.72;26.60;;;5.20;99.90;;;;;;5018298;28;20053;-92
2022/01/14 05:05:36;;;;;;;63.65;27.52;;;6.40;99.90;;;;;;5016889;28;20057;-92
2022/01/14 05:08:05;;;;;;;59.25;24.90;;;6.30;99.90;;;;;;5018166;28;20084;-92
2022/01/14 05:12:57;;;;;;;63.55;27.10;;;5.60;99.90;;;;;;5025922;28;20077;-93
2022/01/14 05:15:23;;;;;;;61.83;28.60;;;5.60;99.90;;;;;;5012126;28;20053;-93
2022/01/14 05:17:50;;;;;;;57.20;26.05;;;5.40;99.90;;;;;;5013070;28;20050;-92
2022/01/14 05:20:17;;;;;;;60.85;24.88;;;5.60;99.90;;;;;;5011677;28;20050;-92
2022/01/14 05:22:44;;;;;;;58.38;25.85;;;5.80;99.90;;;;;;5012914;28;20042;-91
2022/01/14 05:25:11;;;;;;;55.47;27.42;;;5.60;99.90;;;;;;5010021;28;20064;-93
2022/01/14 05:27:37;;;;;;;54.25;23.75;;;5.70;99.90;;;;;;5012508;28;20060;-92
2022/01/14 05:30:05;;;;;;;45.95;24.83;;;6.00;99.90;;;;;;5006723;28;20053;-93
2022/01/14 05:32:30;;;;;;;62.83;27.17;;;5.50;99.90;;;;;;5009114;28;20034;-92
2022/01/14 05:34:56;;;;;;;59.00;26.75;;;5.50;99.90;;;;;;5011148;28;20096;-92
2022/01/14 05:37:22;;;;;;;61.15;27.45;;;5.60;99.90;;;;;;5012848;28;20057;-92
2022/01/14 05:39:48;;;;;;;47.08;24.83;;;5.00;99.90;;;;;;5011173;28;20053;-91
2022/01/14 05:42:13;;;;;;;62.78;26.42;;;5.50;99.90;;;;;;5012708;28;20148;-92
2022/01/14 05:44:39;;;;;;;50.97;26.38;;;5.80;99.90;;;;;;5010482;28;20046;-91
2022/01/14 05:47:05;;;;;;;60.45;25.65;;;5.70;99.90;;;;;;5026223;28;20050;-92
2022/01/14 05:49:31;;;;;;;51.30;22.08;;;5.60;99.90;;;;;;5009219;28;20046;-92
2022/01/14 05:51:57;;;;;;;48.42;25.80;;;6.70;99.90;;;;;;5009415;28;20061;-93
2022/01/14 05:54:23;;;;;;;50.90;25.58;;;5.80;99.90;;;;;;5013772;28;20148;-92
2022/01/14 05:56:49;;;;;;;45.70;21.70;;;5.70;99.90;;;;;;5010794;28;20101;-92
2022/01/14 05:59:15;;;;;;;48.65;22.50;;;5.20;99.90;;;;;;5008146;28;20056;-92
2022/01/14 06:01:43;;;;;;;59.55;23.13;;;6.80;99.90;;;;;;5007406;28;20045;-92
2022/01/14 06:04:09;;;;;;;49.85;23.98;;;6.70;99.90;;;;;;5008446;28;20116;-92
2022/01/14 06:06:36;;;;;;;51.45;22.60;;;6.80;99.90;;;;;;5009199;28;20049;-91
2022/01/14 06:09:04;;;;;;;56.78;24.65;;;5.30;99.90;;;;;;5027798;28;20057;-91
2022/01/14 06:11:33;;;;;;;52.85;23.40;;;6.10;99.90;;;;;;5028778;28;20045;-92
2022/01/14 06:13:58;;;;;;;49.47;23.63;;;5.70;99.90;;;;;;5025187;28;20093;-92
2022/01/14 06:16:24;;;;;;;55.60;25.02;;;6.70;99.90;;;;;;5012528;28;20092;-92
2022/01/14 06:18:50;;;;;;;47.35;21.67;;;6.60;99.90;;;;;;5011988;28;20329;-91
2022/01/14 06:21:16;;;;;;;46.95;21.85;;;5.80;99.90;;;;;;5008352;28;20050;-91
2022/01/14 06:23:42;;;;;;;41.70;21.00;;;6.00;99.90;;;;;;5008844;28;20033;-92
2022/01/14 06:26:08;;;;;;;50.00;22.83;;;5.80;99.90;;;;;;5006909;28;20053;-91
2022/01/14 06:28:33;;;;;;;49.13;22.88;;;5.70;99.90;;;;;;5026354;28;20085;-91
2022/01/14 06:30:59;;;;;;;43.20;22.58;;;5.80;99.90;;;;;;5012564;28;20054;-91
2022/01/14 06:33:25;;;;;;;46.00;20.13;;;5.70;99.90;;;;;;5013526;28;20042;-91
2022/01/14 06:35:52;;;;;;;46.08;22.25;;;5.80;99.90;;;;;;5014348;28;20090;-92
2022/01/14 06:38:19;;;;;;;43.17;21.38;;;6.90;99.90;;;;;;5016381;28;20084;-91
2022/01/14 06:40:48;;;;;;;53.58;23.15;;;5.40;99.90;;;;;;5015869;28;20057;-91
2022/01/14 06:43:15;;;;;;;46.03;23.45;;;5.50;99.90;;;;;;5014400;28;20030;-91
2022/01/14 06:45:42;;;;;;;43.35;22.95;;;6.40;99.90;;;;;;5015381;28;20038;-91
2022/01/14 06:48:09;;;;;;;40.72;21.35;;;5.60;99.90;;;;;;5016790;28;20057;-92
2022/01/14 06:50:34;;;;;;;44.63;21.70;;;6.50;99.90;;;;;;5017332;28;20038;-91
2022/01/14 06:53:01;;;;;;;44.42;22.13;;;6.60;99.90;;;;;;5017359;28;20084;-91
2022/01/14 06:55:27;;;;;;;46.60;22.38;;;5.80;99.90;;;;;;5016059;28;20025;-91
2022/01/14 06:57:53;;;;;;;41.85;22.02;;;6.70;99.90;;;;;;5015911;28;20053;-91
2022/01/14 07:00:19;;;;;;;43.92;20.77;;;5.90;99.90;;;;;;5031824;28;20049;-91
2022/01/14 07:02:46;;;;;;;52.88;20.80;;;5.80;99.90;;;;;;5015846;28;20061;-91
2022/01/14 07:05:12;;;;;;;46.38;21.70;;;5.80;99.90;;;;;;5015495;28;20042;-91
2022/01/14 07:07:39;;;;;;;43.03;20.20;;;5.80;99.90;;;;;;5029475;28;20146;-91
2022/01/14 07:10:06;;;;;;;37.35;20.63;;;5.50;99.90;;;;;;5018313;28;20089;-90
2022/01/14 07:12:38;;;;;;;37.17;19.42;;;5.90;99.90;;;;;;5019027;28;20056;-90
2022/01/14 07:15:08;;;;;;;54.10;21.70;;;6.30;99.90;;;;;;5014229;28;20057;-92
2022/01/14 07:17:34;;;;;;;40.33;21.05;;;5.80;99.90;;;;;;5011302;28;20643;-92
2022/01/14 07:20:06;;;;;;;49.90;21.15;;;5.80;99.90;;;;;;5012981;28;20046;-91
2022/01/14 07:22:31;;;;;;;45.15;21.77;;;5.70;99.90;;;;;;5016609;28;20054;-91
2022/01/14 07:24:58;;;;;;;35.70;18.58;;;6.70;99.90;;;;;;5007662;28;20049;-92
2022/01/14 07:27:25;;;;;;;42.80;18.38;;;5.90;99.90;;;;;;5001118;28;20488;-92
2022/01/14 07:29:51;;;;;;;49.25;18.63;;;5.90;99.90;;;;;;5021292;28;20050;-92
2022/01/14 07:32:16;;;;;;;37.88;17.48;;;6.00;99.90;;;;;;5024179;28;20593;-92
2022/01/14 07:34:42;;;;;;;40.75;18.17;;;6.00;99.90;;;;;;5008324;28;20049;-92
2022/01/14 07:37:08;;;;;;;44.78;17.70;;;6.00;99.90;;;;;;5007694;28;20053;-92
2022/01/14 07:39:34;;;;;;;46.13;19.48;;;6.00;99.90;;;;;;5017692;28;20053;-92
2022/01/14 07:42:00;;;;;;;44.45;19.27;;;6.00;99.90;;;;;;5015928;28;20038;-92
2022/01/14 07:44:25;;;;;;;39.53;18.23;;;6.00;99.90;;;;;;5018431;28;20026;-90
2022/01/14 07:46:51;;;;;;;36.55;18.80;;;6.00;99.90;;;;;;5019194;28;20029;-92
2022/01/14 07:49:17;;;;;;;33.65;17.02;;;6.00;99.90;;;;;;5017740;28;20033;-92
2022/01/14 07:51:42;;;;;;;35.97;16.05;;;6.00;99.90;;;;;;5017053;28;20045;-92
2022/01/14 07:54:08;;;;;;;36.28;17.45;;;6.10;99.90;;;;;;5014259;28;20121;-92
2022/01/14 07:56:38;;;;;;;37.28;16.33;;;6.00;99.90;;;;;;5005773;28;20599;-88
2022/01/14 07:59:05;;;;;;;38.80;16.08;;;6.10;99.90;;;;;;5014618;28;20578;-88
2022/01/14 08:01:33;;;;;;;44.70;16.77;;;6.10;99.90;;;;;;5013000;28;20057;-87
2022/01/14 08:03:59;;;;;;;45.67;16.42;;;6.10;99.90;;;;;;5013288;28;20046;-88
2022/01/14 08:06:26;;;;;;;30.85;15.82;;;6.10;99.90;;;;;;5013146;28;20139;-89
2022/01/14 08:08:57;;;;;;;27.23;15.90;;;6.10;99.90;;;;;;5014895;28;20424;-89
2022/01/14 08:11:23;;;;;;;35.80;17.77;;;6.10;99.90;;;;;;5014352;28;20094;-88
2022/01/14 08:13:49;;;;;;;32.22;14.63;;;6.10;99.90;;;;;;5014834;28;20045;-89
2022/01/14 08:16:14;;;;;;;37.75;15.95;;;6.20;99.90;;;;;;5014859;28;20060;-89
2022/01/14 08:18:40;;;;;;;33.03;14.82;;;6.20;99.90;;;;;;5014686;28;20042;-88
2022/01/14 08:21:05;;;;;;;48.75;16.88;;;6.20;99.90;;;;;;4999841;28;20057;-89
2022/01/14 08:23:31;;;;;;;41.08;17.02;;;6.20;99.90;;;;;;4999132;28;20061;-89
2022/01/14 08:25:57;;;;;;;35.95;15.85;;;6.30;99.90;;;;;;5014346;28;20062;-89
2022/01/14 08:28:24;;;;;;;33.80;15.45;;;6.30;99.90;;;;;;5015815;28;20053;-88
2022/01/14 08:30:50;;;;;;;30.20;14.07;;;6.30;99.90;;;;;;5013652;28;20050;-89
2022/01/14 08:33:17;;;;;;;38.08;16.48;;;6.30;99.90;;;;;;5015212;28;20051;-89
2022/01/14 08:35:43;;;;;;;24.52;12.27;;;6.40;99.90;;;;;;5014486;28;20057;-89
2022/01/14 08:38:08;;;;;;;42.92;15.57;;;6.40;99.90;;;;;;5013004;28;20516;-89
2022/01/14 08:40:34;;;;;;;33.30;14.02;;;6.40;99.90;;;;;;5013487;28;20518;-89
2022/01/14 08:43:00;;;;;;;38.38;13.23;;;6.40;99.90;;;;;;4996120;28;20054;-89
2022/01/14 08:45:26;;;;;;;33.25;12.80;;;6.50;99.90;;;;;;5012614;28;20492;-88
2022/01/14 08:47:54;;;;;;;32.97;14.25;;;6.50;99.90;;;;;;5012026;28;20088;-89
2022/01/14 08:50:27;;;;;;;36.58;13.10;;;6.50;99.90;;;;;;5011597;28;20507;-88
2022/01/14 08:52:53;;;;;;;29.15;12.30;;;6.50;99.90;;;;;;5012051;28;20045;-88
2022/01/14 08:55:21;;;;;;;26.33;12.05;;;6.60;99.90;;;;;;5012171;28;20140;-88
2022/01/14 08:57:47;;;;;;;31.98;11.80;;;6.70;99.90;;;;;;5013984;28;20057;-89
2022/01/14 09:00:15;;;;;;;32.35;11.07;;;6.70;99.90;;;;;;5013212;28;20056;-88
2022/01/14 09:02:40;;;;;;;23.60;12.25;;;6.70;99.90;;;;;;5012651;28;20065;-89
2022/01/14 09:05:07;;;;;;;29.02;12.23;;;6.80;99.90;;;;;;5012989;28;20046;-88
2022/01/14 09:07:32;;;;;;;26.65;10.82;;;6.80;99.90;;;;;;5012509;28;20053;-89
2022/01/14 09:09:58;;;;;;;25.83;12.65;;;6.80;99.90;;;;;;5012257;28;20050;-89
2022/01/14 09:12:24;;;;;;;26.77;10.75;;;6.80;99.90;;;;;;5012497;28;20397;-89
2022/01/14 09:14:50;;;;;;;20.33;9.60;;;6.90;99.90;;;;;;5011690;28;20116;-88
2022/01/14 09:17:17;;;;;;;25.30;8.63;;;6.90;99.90;;;;;;5012080;28;20085;-88
2022/01/14 09:19:51;;;;;;;18.15;9.48;;;7.00;99.90;;;;;;5012115;28;20045;-89
2022/01/14 09:22:18;;;;;;;24.05;9.23;;;7.00;99.90;;;;;;4993783;28;20531;-89
2022/01/14 09:24:46;;;;;;;23.25;10.15;;;7.10;99.90;;;;;;5010195;28;20523;-89
2022/01/14 09:27:13;;;;;;;25.58;8.80;;;7.10;99.90;;;;;;5011714;28;20119;-88
2022/01/14 09:29:38;;;;;;;26.65;7.85;;;7.20;99.90;;;;;;5013510;28;20061;-89
2022/01/14 09:32:05;;;;;;;25.42;7.32;;;7.20;99.90;;;;;;5013728;28;20050;-89
2022/01/14 09:34:31;;;;;;;21.25;7.13;;;7.30;99.90;;;;;;4994190;28;20049;-89
2022/01/14 09:36:57;;;;;;;22.45;8.15;;;7.30;99.90;;;;;;5012180;28;20050;-89
2022/01/14 09:39:22;;;;;;;18.05;6.45;;;7.40;99.90;;;;;;5011527;28;20045;-89
2022/01/14 09:41:48;;;;;;;20.55;6.93;;;7.40;99.90;;;;;;5013418;28;20053;-89
2022/01/14 09:44:15;;;;;;;26.10;7.95;;;7.50;99.90;;;;;;5012599;28;20515;-88
2022/01/14 09:46:40;;;;;;;25.98;6.85;;;7.50;99.90;;;;;;5010411;28;20064;-88
2022/01/14 09:49:09;;;;;;;24.20;7.20;;;7.50;99.90;;;;;;5013465;28;20535;-88
2022/01/14 09:51:35;;;;;;;16.65;5.35;;;7.90;99.90;;;;;;5015564;28;20050;-88
2022/01/14 09:54:02;;;;;;;19.27;7.15;;;7.50;99.90;;;;;;4999410;28;20088;-88
2022/01/14 09:56:28;;;;;;;20.38;7.07;;;8.70;99.90;;;;;;4998615;28;20053;-88
2022/01/14 09:58:53;;;;;;;18.58;7.40;;;8.00;99.90;;;;;;5013885;28;20132;-88
2022/01/14 10:01:22;;;;;;;20.77;8.50;;;7.60;99.90;;;;;;5013701;28;20136;-88
2022/01/14 10:04:00;;;;;;;21.77;10.98;;;8.10;99.90;;;;;;5013714;28;20045;-88
2022/01/14 10:06:55;;;;;;;28.75;10.23;;;7.80;99.90;;;;;;4995693;28;20054;-88
2022/01/14 10:09:23;;;;;;;21.02;7.55;;;7.70;99.90;;;;;;5012720;28;20084;-88
2022/01/14 10:12:11;;;;;;;22.02;7.10;;;7.70;99.90;;;;;;5013352;28;20088;-89
2022/01/14 10:14:45;;;;;;;16.65;5.50;;;7.80;99.90;;;;;;5015831;28;20056;-88
2022/01/14 10:17:12;;;;;;;16.00;6.13;;;7.70;99.90;;;;;;4999461;28;20096;-88
2022/01/14 10:19:41;;;;;;;16.10;6.20;;;7.70;99.90;;;;;;5013702;28;20061;-88
2022/01/14 10:22:30;;;;;;;19.42;5.63;;;7.80;99.90;;;;;;5012825;28;20041;-91
2022/01/14 10:25:00;;;;;;;15.98;5.55;;;7.80;99.90;;;;;;5014535;28;20050;-91
2022/01/14 10:27:51;;;;;;;20.17;5.47;;;8.80;99.90;;;;;;5015473;28;20061;-91
2022/01/14 10:30:33;;;;;;;17.50;5.85;;;7.90;99.90;;;;;;4999693;28;20133;-91
2022/01/14 10:33:00;;;;;;;17.63;6.15;;;8.00;99.90;;;;;;4999745;28;20587;-91
2022/01/14 10:35:29;;;;;;;18.20;5.50;;;7.90;99.90;;;;;;5000902;28;20125;-91
2022/01/14 10:37:59;;;;;;;11.85;5.18;;;7.90;99.90;;;;;;5015207;28;20073;-91
2022/01/14 10:40:26;;;;;;;29.67;6.65;;;7.90;99.90;;;;;;5014744;28;20088;-91
2022/01/14 10:43:01;;;;;;;21.80;4.93;;;8.00;99.90;;;;;;5015497;28;20065;-92
2022/01/14 10:45:28;;;;;;;13.75;4.72;;;8.00;99.90;;;;;;4998778;28;20054;-91
2022/01/14 10:48:39;;;;;;;13.98;4.43;;;8.00;99.90;;;;;;4998957;28;20056;-91
2022/01/14 10:51:12;;;;;;;17.83;4.38;;;7.90;99.90;;;;;;4995381;28;20050;-92
2022/01/14 10:53:51;;;;;;;18.00;4.05;;;7.80;99.90;;;;;;5014885;28;20041;-91
2022/01/14 10:56:25;;;;;;;15.20;4.47;;;8.50;99.90;;;;;;4998522;28;20049;-91
2022/01/14 10:58:58;;;;;;;20.98;5.15;;;8.00;99.90;;;;;;4999122;28;20088;-92
2022/01/14 11:01:25;;;;;;;18.88;4.38;;;7.90;99.90;;;;;;4998195;28;20092;-91
2022/01/14 11:03:52;;;;;;;14.90;4.30;;;7.80;99.90;;;;;;4999764;28;20057;-91
2022/01/14 11:06:23;;;;;;;15.20;3.90;;;8.00;99.90;;;;;;5017773;28;20101;-91
2022/01/14 11:09:03;;;;;;;11.65;4.32;;;8.00;99.90;;;;;;4998437;28;20077;-91
2022/01/14 11:11:31;;;;;;;15.02;4.43;;;8.00;99.90;;;;;;5014604;28;20095;-91
2022/01/14 11:13:57;;;;;;;13.40;3.90;;;8.00;99.90;;;;;;4998106;28;20058;-91
2022/01/14 11:16:23;;;;;;;14.60;3.92;;;8.00;99.90;;;;;;4999264;28;20057;-90
2022/01/14 11:18:49;;;;;;;13.13;4.05;;;8.00;99.90;;;;;;4996705;28;20025;-91
2022/01/14 11:24:03;;;;;;;21.38;3.97;;;7.90;99.90;;;;;;5014743;28;20051;-91
2022/01/14 11:26:34;;;;;;;17.40;3.67;;;8.00;99.90;;;;;;5015257;28;20081;-91
2022/01/14 11:29:12;;;;;;;25.08;3.47;;;8.70;99.90;;;;;;4998807;28;20127;-91
2022/01/14 11:31:39;;;;;;;16.70;4.47;;;8.00;99.90;;;;;;4998497;28;20500;-91
2022/01/14 11:34:35;;;;;;;15.48;3.20;;;8.90;99.90;;;;;;5002491;28;20069;-91
2022/01/14 11:37:03;;;;;;;17.00;4.93;;;8.10;99.90;;;;;;4997739;28;20058;-92
2022/01/14 11:39:31;;;;;;;16.40;4.30;;;8.10;99.90;;;;;;5000946;28;20108;-90
2022/01/14 11:42:04;;;;;;;13.88;2.97;;;8.00;99.90;;;;;;5001287;28;20054;-91
2022/01/14 11:45:00;;;;;;;18.08;3.58;;;8.10;99.90;;;;;;5001179;28;20046;-91
2022/01/14 11:47:36;;;;;;;15.45;2.72;;;8.10;99.90;;;;;;5014960;28;20451;-91
2022/01/14 11:50:02;;;;;;;10.27;2.90;;;8.10;99.90;;;;;;5013710;28;20050;-91
2022/01/14 11:52:43;;;;;;;18.35;4.22;;;8.10;99.90;;;;;;4996358;28;20158;-90
2022/01/14 11:55:27;;;;;;;19.27;3.47;;;8.10;99.90;;;;;;5011655;28;20050;-91
2022/01/14 11:57:58;;;;;;;16.20;3.65;;;8.10;99.90;;;;;;5012761;28;20050;-91
2022/01/14 12:02:56;;;;;;;17.42;4.22;;;8.20;99.90;;;;;;5017052;28;20056;-91
2022/01/14 12:05:23;;;;;;;18.13;3.60;;;8.20;99.90;;;;;;5001460;28;20046;-91
2022/01/14 12:08:34;;;;;;;20.25;4.82;;;8.30;99.90;;;;;;5021118;28;20076;-92
2022/01/14 12:14:45;;;;;;;20.70;3.97;;;7.80;99.90;;;;;;5021653;28;20056;-91
2022/01/14 12:17:13;;;;;;;15.60;4.85;;;8.90;99.90;;;;;;5004554;28;20057;-89
2022/01/14 12:19:39;;;;;;;16.00;6.35;;;8.60;99.90;;;;;;5003884;28;20046;-91
2022/01/14 12:22:05;;;;;;;17.20;4.22;;;8.10;99.90;;;;;;5016769;28;20081;-91
2022/01/14 12:24:35;;;;;;;19.17;4.88;;;8.10;99.90;;;;;;4998790;28;20113;-90
2022/01/14 12:27:01;;;;;;;23.95;4.97;;;8.20;99.90;;;;;;5000022;28;20065;-91
2022/01/14 12:29:34;;;;;;;24.60;5.13;;;8.10;99.90;;;;;;5002142;28;20137;-91
2022/01/14 12:32:41;;;;;;;19.42;4.93;;;8.10;99.90;;;;;;5017886;28;20041;-92
2022/01/14 12:35:32;;;;;;;20.83;4.55;;;8.10;99.90;;;;;;5000821;28;20054;-91
2022/01/14 12:37:59;;;;;;;22.73;5.85;;;8.10;99.90;;;;;;5016104;28;20065;-90
2022/01/14 12:40:36;;;;;;;18.08;5.30;;;8.00;99.90;;;;;;5015224;28;20050;-91
2022/01/14 12:43:05;;;;;;;15.63;4.97;;;8.00;99.90;;;;;;5015526;28;20469;-91
2022/01/14 12:45:51;;;;;;;23.33;5.90;;;8.00;99.90;;;;;;5018086;28;20053;-91
2022/01/14 12:48:39;;;;;;;18.15;4.30;;;8.00;99.90;;;;;;5016681;28;20046;-91
2022/01/14 12:51:14;;;;;;;18.00;5.20;;;8.00;99.90;;;;;;5001655;28;20054;-91
2022/01/14 12:53:47;;;;;;;35.78;5.68;;;8.00;99.90;;;;;;4999924;28;20045;-91
2022/01/14 12:56:15;;;;;;;16.50;5.05;;;8.00;99.90;;;;;;5016073;28;20041;-91
2022/01/14 12:59:13;;;;;;;19.33;5.18;;;8.00;99.90;;;;;;5016120;28;20582;-91
2022/01/14 13:01:47;;;;;;;16.88;4.85;;;9.20;99.90;;;;;;5004255;28;20562;-91
2022/01/14 13:04:28;;;;;;;16.73;5.30;;;8.00;99.90;;;;;;5014044;28;20053;-91
2022/01/14 13:06:56;;;;;;;15.07;3.97;;;8.00;99.90;;;;;;4996695;28;20069;-91
2022/01/14 13:09:29;;;;;;;14.32;3.90;;;8.00;99.90;;;;;;5013240;28;20056;-91
2022/01/14 13:12:04;;;;;;;20.48;4.72;;;8.00;99.90;;;;;;5014840;28;20156;-92
2022/01/14 13:14:39;;;;;;;19.65;5.00;;;8.00;99.90;;;;;;4997782;28;20065;-91
2022/01/14 13:17:12;;;;;;;20.98;4.60;;;8.00;99.90;;;;;;5014242;28;20140;-91
2022/01/14 13:19:39;;;;;;;19.30;5.47;;;7.90;99.90;;;;;;5015256;28;20053;-91
2022/01/14 13:22:12;;;;;;;21.92;5.50;;;7.90;99.90;;;;;;5016005;28;20141;-91
2022/01/14 13:24:40;;;;;;;20.73;5.10;;;7.90;99.90;;;;;;5015081;28;20058;-91
2022/01/14 13:27:22;;;;;;;21.80;4.93;;;7.80;99.90;;;;;;5013545;28;20121;-91
2022/01/14 13:30:02;;;;;;;17.05;4.63;;;7.70;99.90;;;;;;5014603;28;20092;-91
2022/01/14 13:32:34;;;;;;;23.85;5.85;;;7.70;99.90;;;;;;5014882;28;20052;-91
2022/01/14 13:35:18;;;;;;;30.10;6.53;;;7.70;99.90;;;;;;5016865;28;20042;-91
2022/01/14 13:37:44;;;;;;;18.23;5.60;;;8.80;99.90;;;;;;5018556;28;20057;-91
2022/01/14 13:40:20;;;;;;;18.05;5.25;;;7.60;99.90;;;;;;5019982;28;20627;-91
2022/01/14 13:43:01;;;;;;;27.00;8.23;;;7.50;99.90;;;;;;5015909;28;20097;-91